Terminal Aerodrome Forecast
Issued by NWS

Home | Current Version | Previous Version | Text Only | Print | Product List | Glossary On
Versions: 1 2 3 4 5 6 7 8 9 10 11 12 13 14 15 16 17
000
FTUS41 KBTV 230200 AAA
TAFSLK
TAF AMD
KSLK 230223Z 2302/2324 00000KT P6SM BKN090
      TEMPO 2302/2306 5SM BR OVC025
     FM230600 00000KT 3SM BR OVC010
     FM231400 VRB03KT P6SM BKN030=

USA.gov is the U.S. government's official web portal to all federal, state and local government web resources and services.